Detall de PIREP

Printer-friendly versionPDF version

[2012/01/26 20:46:00]
Flight IATA:CT1004
Pilot Number:037
Company ICAO:CAT
Aircraft Type:B752/E
PAX:32
Departing Airport: GCRR
Destination Airport: LEAL
Alternate Airport:LEPA
Online: VATSIM
Route:KORAL UG5 ESS UN871 VJF UN851 RESTU

Flight Level:F400
No Slew and time accel
No pause
Crash detect
Detect pilot in Cockpit between each 30 and 45 minutes
20:46 Zero fuel Weight: 144889 Lbs, Fuel Weight: 28600 Lbs
20:46 VATSIM:GCRR 262030Z 35010KT 9999 FEW030 17/12 Q1022
20:46 VATSIM:LEAL 262030Z VRB02KT 9999 SCT020 13/09 Q1018 NOSIG
20:57 Parking Brakes off
21:08 Take-off
21:08 Take off Weight: 172290 Lbs
21:08 Wind: 358º @ 010 Knots Heading: 024º
21:08 POS N28º 56´ 52´´ W013º 36´ 13´´
21:08 Gear Up: 186 Knots
21:08 Flaps:2 at 187 Knots
21:08 Flaps:1 at 255 Knots
21:09 Flaps:0 at 206 Knots
21:23 Wind:347º@032 Knots Heading: 051º Ground Speed: 427 Knots Altitude 37395 ft
21:24 TOC
21:24 Fuel Weight: 23364 Lb
21:38 Wind:167º@013 Knots Heading: 057º Ground Speed: 473 Knots Altitude 40150 ft
21:53 Wind:217º@008 Knots Heading: 031º Ground Speed: 475 Knots Altitude 40164 ft
22:08 Wind:221º@000 Knots Heading: 032º Ground Speed: 467 Knots Altitude 40118 ft
22:23 Wind:100º@012 Knots Heading: 034º Ground Speed: 460 Knots Altitude 40167 ft
22:38 Wind:319º@027 Knots Heading: 066º Ground Speed: 474 Knots Altitude 40144 ft
22:47 TOD
22:47 Fuel Weight: 13648 Lb
22:53 Wind:312º@010 Knots Heading: 062º Ground Speed: 371 Knots Altitude 29908 ft
23:08 Wind:275º@007 Knots Heading: 041º Ground Speed: 262 Knots Altitude 9173 ft
23:19 Flaps:1 at 199 Knots
23:20 Flaps:2 at 188 Knots
23:21 Gear Down: 185 Knots
23:22 Flaps:3 at 179 Knots
23:22 Flaps:4 at 168 Knots
23:23 Wind:300º@002 Knots Heading: 099º Ground Speed: 150 Knots Altitude 1597 ft
23:23 Flaps:5 at 145 Knots
23:24 Flaps:6 at 140 Knots
23:25 TouchDown:Rate -296 ft/min Speed: 123 Knots
23:25 VATSIM:LEAL 262300Z VRB01KT 9999 SCT020 13/08 Q1019 NOSIG
23:25 Land
23:25 Wind:302º@002 Knots
23:25 Heading: 100º
23:25 Flight Duration: 02:17
23:25 Landing Weight: 156106 Lbs
23:25 POS N38º 16´ 55´´ W000º 33´ 26´´
23:30 Parking brakes on
23:30 Block to Block Duration: 02:33
23:30 Final Fuel: 10712 Lbls
23:30 Spent Fuel: 17888 Lbls
23:30 Flight Length: 810 NM
23:30 TOD Land Length: 181 NM

Exportar CSV

Powered by Drupal - Modified by Danger4k